Terminal Aerodrome Forecast
Issued by NWS Jackson, KY

Home | Current Version | Previous Version | Text Only | Print | Product List | Glossary On
Versions: 1 2 3 4 5 6 7 8 9 10 11 12 13 14 15 16 17 18 19 20 21 22 23 24
859
FTUS43 KJKL 091723
TAFLOZ
TAF
KLOZ 091723Z 0918/1018 28006KT 6SM BR VCSH BKN020 OVC040
      TEMPO 0918/0921 1SM -SHSN BKN010 OVC030
     FM092100 28004KT 4SM -SHSN OVC025
     FM101400 27008KT P6SM VCSH OVC025=

USA.gov is the U.S. government's official web portal to all federal, state and local government web resources and services.